createdAt,value
2018-02-09T00:00:13.600Z,0
2018-02-09T00:01:23.863Z,0
2018-02-09T00:02:33.908Z,0
2018-02-09T00:03:43.694Z,0
2018-02-09T00:04:53.480Z,0
2018-02-09T00:06:03.011Z,0
2018-02-09T00:07:13.255Z,0
2018-02-09T00:08:23.285Z,0
2018-02-09T00:09:33.082Z,0
2018-02-09T00:10:43.139Z,0
2018-02-09T00:11:53.177Z,0
2018-02-09T00:13:03.236Z,0
2018-02-09T00:14:13.019Z,0
2018-02-09T00:15:22.816Z,0
2018-02-09T00:16:32.872Z,0
2018-02-09T00:17:42.684Z,0
2018-02-09T00:18:52.745Z,0
2018-02-09T00:20:02.794Z,0
2018-02-09T00:21:12.320Z,0
2018-02-09T00:22:22.441Z,0
2018-02-09T00:23:32.477Z,0
2018-02-09T00:24:42.531Z,0
2018-02-09T00:25:52.578Z,0
2018-02-09T00:27:02.637Z,0
2018-02-09T00:28:12.680Z,0
2018-02-09T00:29:22.461Z,0
2018-02-09T00:30:32.257Z,0
2018-02-09T00:31:42.324Z,0
2018-02-09T00:32:52.099Z,0
2018-02-09T00:34:02.158Z,0
2018-02-09T00:35:12.210Z,0
2018-02-09T00:36:22.321Z,0
2018-02-09T00:37:32.125Z,0
2018-02-09T00:38:41.915Z,0
2018-02-09T00:39:51.967Z,0
2018-02-09T00:41:02.004Z,0
2018-02-09T00:42:11.633Z,0
2018-02-09T00:43:21.414Z,0
2018-02-09T00:44:31.501Z,0
2018-02-09T00:45:41.538Z,0
2018-02-09T00:46:51.582Z,0
2018-02-09T00:48:01.633Z,0
2018-02-09T00:49:11.686Z,0
2018-02-09T00:50:21.725Z,0
2018-02-09T00:51:31.771Z,0
2018-02-09T00:52:41.797Z,0
2018-02-09T00:53:51.370Z,0
2018-02-09T00:55:01.406Z,0
2018-02-09T00:56:11.183Z,0
2018-02-09T00:57:21.238Z,0
2018-02-09T00:58:31.281Z,0
2018-02-09T00:59:41.332Z,0
2018-02-09T01:00:51.394Z,0
2018-02-09T01:02:01.181Z,0
2018-02-09T01:03:10.973Z,0
2018-02-09T01:04:20.804Z,0
2018-02-09T01:05:30.601Z,0
2018-02-09T01:06:40.397Z,0
2018-02-09T01:07:50.192Z,0
2018-02-09T01:09:00.236Z,0
2018-02-09T01:10:10.053Z,0
2018-02-09T01:11:20.085Z,0
2018-02-09T01:12:30.130Z,0
2018-02-09T01:13:40.182Z,0
2018-02-09T01:14:49.970Z,0
2018-02-09T01:16:00.020Z,0
2018-02-09T01:17:09.554Z,0
2018-02-09T01:18:19.590Z,0
2018-02-09T01:19:29.623Z,0
2018-02-09T01:20:39.669Z,0
2018-02-09T01:21:49.439Z,0
2018-02-09T01:22:59.273Z,0
2018-02-09T01:24:09.322Z,0
2018-02-09T01:25:19.385Z,0
2018-02-09T01:26:29.164Z,0
2018-02-09T01:27:38.944Z,0
2018-02-09T01:28:48.986Z,0
2018-02-09T01:29:59.032Z,0
2018-02-09T01:31:08.823Z,0
2018-02-09T01:32:18.876Z,0
2018-02-09T01:33:28.985Z,0
2018-02-09T01:34:39.030Z,0
2018-02-09T01:35:49.066Z,0
2018-02-09T01:36:59.108Z,0
2018-02-09T01:38:09.176Z,0
2018-02-09T01:39:19.219Z,0
2018-02-09T01:40:29.304Z,0
2018-02-09T01:41:39.107Z,0
2018-02-09T01:42:48.904Z,0
2018-02-09T01:43:59.007Z,0
2018-02-09T01:45:08.867Z,0
2018-02-09T01:46:18.904Z,0
2018-02-09T01:47:28.951Z,0
2018-02-09T01:48:38.996Z,0
2018-02-09T01:49:49.068Z,0
2018-02-09T01:50:59.114Z,0
2018-02-09T01:52:08.903Z,0
2018-02-09T01:53:18.949Z,0
2018-02-09T01:54:28.996Z,0
2018-02-09T01:55:39.054Z,0
2018-02-09T01:56:49.095Z,0
2018-02-09T01:57:59.169Z,0
2018-02-09T01:59:09.228Z,0
2018-02-09T02:00:19.294Z,0
2018-02-09T02:01:29.326Z,0
2018-02-09T02:02:39.390Z,0
2018-02-09T02:03:49.180Z,0
2018-02-09T02:04:59.235Z,0
2018-02-09T02:06:09.018Z,0
2018-02-09T02:07:19.061Z,0
2018-02-09T02:08:29.109Z,0
2018-02-09T02:09:38.957Z,0
2018-02-09T02:10:48.989Z,0
2018-02-09T02:11:59.027Z,0
2018-02-09T02:13:08.812Z,0
2018-02-09T02:14:18.856Z,0
2018-02-09T02:15:28.629Z,0
2018-02-09T02:16:38.156Z,0
2018-02-09T02:17:47.935Z,0
2018-02-09T02:18:57.813Z,0
2018-02-09T02:20:07.866Z,0
2018-02-09T02:21:18.058Z,0
2018-02-09T02:22:28.103Z,0
2018-02-09T02:23:38.158Z,0
2018-02-09T02:24:48.197Z,0
2018-02-09T02:25:57.984Z,0
2018-02-09T02:27:07.501Z,0
2018-02-09T02:28:17.296Z,0
2018-02-09T02:29:27.074Z,0
2018-02-09T02:30:37.123Z,0
2018-02-09T02:31:47.183Z,0
2018-02-09T02:32:57.238Z,0
2018-02-09T02:34:07.291Z,0
2018-02-09T02:35:17.341Z,0
2018-02-09T02:36:27.380Z,0
2018-02-09T02:37:37.425Z,0
2018-02-09T02:38:47.512Z,0
2018-02-09T02:39:57.558Z,0
2018-02-09T02:41:07.597Z,0
2018-02-09T02:42:17.147Z,0
2018-02-09T02:43:27.203Z,0
2018-02-09T02:44:36.995Z,0
2018-02-09T02:45:47.021Z,0
2018-02-09T02:46:57.081Z,0
2018-02-09T02:48:06.867Z,0
2018-02-09T02:49:16.918Z,0
2018-02-09T02:50:27.019Z,0
2018-02-09T02:51:36.805Z,0
2018-02-09T02:52:46.332Z,0
2018-02-09T02:53:56.396Z,0
2018-02-09T02:55:06.445Z,0
2018-02-09T02:56:16.529Z,0
2018-02-09T02:57:26.576Z,0
2018-02-09T02:58:36.364Z,0
2018-02-09T02:59:46.423Z,0
2018-02-09T03:00:56.214Z,0
2018-02-09T03:02:06.267Z,0
2018-02-09T03:03:16.300Z,0
2018-02-09T03:35:16.444Z,0
2018-02-09T03:36:26.215Z,0
2018-02-09T03:37:36.260Z,0
2018-02-09T03:38:46.291Z,0
2018-02-09T03:39:56.083Z,0
2018-02-09T03:41:06.172Z,0
2018-02-09T03:42:16.220Z,0
2018-02-09T03:43:26.014Z,0
2018-02-09T03:44:36.046Z,0
2018-02-09T03:45:46.082Z,0
2018-02-09T03:46:55.872Z,0
2018-02-09T03:48:05.658Z,0
2018-02-09T03:49:15.698Z,0
2018-02-09T03:50:25.754Z,0
2018-02-09T03:51:35.793Z,0
2018-02-09T03:52:45.624Z,0
2018-02-09T03:53:55.673Z,0
2018-02-09T03:55:05.725Z,0
2018-02-09T03:56:15.773Z,0
2018-02-09T03:57:25.814Z,0
2018-02-09T03:58:35.597Z,0
2018-02-09T03:59:45.385Z,0
2018-02-09T04:00:55.168Z,0
2018-02-09T04:02:04.948Z,0
2018-02-09T04:03:14.995Z,0
2018-02-09T04:04:25.031Z,0
2018-02-09T04:05:35.108Z,0
2018-02-09T04:06:44.906Z,0
2018-02-09T04:07:54.701Z,0
2018-02-09T04:09:04.233Z,0
2018-02-09T04:10:14.039Z,0
2018-02-09T04:11:24.100Z,0
2018-02-09T04:12:34.140Z,0
2018-02-09T04:13:43.680Z,0
2018-02-09T04:14:53.728Z,0
2018-02-09T04:16:03.566Z,0
2018-02-09T04:17:13.599Z,0
2018-02-09T04:18:23.637Z,0
2018-02-09T04:19:33.663Z,0
2018-02-09T04:20:43.432Z,0
2018-02-09T04:21:53.488Z,0
2018-02-09T04:23:03.536Z,0
2018-02-09T04:24:13.064Z,0
2018-02-09T04:25:22.866Z,0
2018-02-09T04:26:32.911Z,0
2018-02-09T04:27:42.956Z,0
2018-02-09T04:28:52.997Z,0
2018-02-09T04:30:02.786Z,0
2018-02-09T04:31:12.830Z,0
2018-02-09T04:32:22.879Z,0
2018-02-09T04:33:32.930Z,0
2018-02-09T04:34:42.707Z,0
2018-02-09T04:35:52.753Z,0
2018-02-09T04:37:02.792Z,0
2018-02-09T04:38:12.831Z,0
2018-02-09T04:39:22.885Z,0
2018-02-09T04:40:32.672Z,0
2018-02-09T04:41:42.718Z,0
2018-02-09T04:42:52.758Z,0
2018-02-09T04:44:02.547Z,0
2018-02-09T04:45:12.599Z,0
2018-02-09T04:46:22.658Z,0
2018-02-09T04:47:32.708Z,0
2018-02-09T04:48:42.744Z,0
2018-02-09T04:49:52.558Z,0
2018-02-09T04:51:02.604Z,0
2018-02-09T04:52:12.638Z,0
2018-02-09T04:53:22.682Z,0
2018-02-09T04:54:32.714Z,0
2018-02-09T04:55:42.805Z,0
2018-02-09T04:56:52.858Z,0
2018-02-09T04:58:02.893Z,0
2018-02-09T04:59:12.684Z,0
2018-02-09T05:00:22.473Z,0
2018-02-09T05:01:32.522Z,0
2018-02-09T05:02:42.629Z,0
2018-02-09T05:03:52.707Z,0
2018-02-09T05:05:02.728Z,0
2018-02-09T05:06:12.775Z,0
2018-02-09T05:07:22.547Z,0
2018-02-09T05:08:32.594Z,0
2018-02-09T05:09:42.629Z,0
2018-02-09T05:10:52.428Z,0
2018-02-09T05:12:02.478Z,0
2018-02-09T05:13:12.537Z,0
2018-02-09T05:14:22.593Z,0
2018-02-09T05:15:32.667Z,0
2018-02-09T05:16:42.704Z,0
2018-02-09T05:17:52.492Z,0
2018-02-09T05:19:02.533Z,0
2018-02-09T05:20:12.626Z,0
2018-02-09T05:21:21.883Z,0
2018-02-09T05:22:31.937Z,0
2018-02-09T05:23:41.983Z,0
2018-02-09T05:24:52.007Z,0
2018-02-09T05:26:01.781Z,0
2018-02-09T05:27:11.827Z,0
2018-02-09T05:28:21.623Z,0
2018-02-09T05:29:31.665Z,0
2018-02-09T05:30:41.697Z,0
2018-02-09T05:31:51.503Z,0
2018-02-09T05:33:01.284Z,0
2018-02-09T05:34:11.140Z,0
2018-02-09T05:35:21.173Z,0
2018-02-09T05:36:30.964Z,0
2018-02-09T05:37:41.011Z,0
2018-02-09T05:38:50.808Z,0
2018-02-09T05:40:00.916Z,0
2018-02-09T05:41:10.708Z,0
2018-02-09T05:42:20.748Z,0
2018-02-09T05:43:30.810Z,0
2018-02-09T05:44:40.860Z,0
2018-02-09T05:45:50.643Z,0
2018-02-09T05:47:00.671Z,0
2018-02-09T05:48:10.715Z,4
2018-02-09T05:49:20.759Z,4
2018-02-09T05:50:30.596Z,4
2018-02-09T05:51:40.364Z,0
2018-02-09T05:52:50.402Z,0
2018-02-09T05:54:00.177Z,4
2018-02-09T05:55:10.222Z,4
2018-02-09T05:56:20.255Z,4
2018-02-09T05:57:30.037Z,4
2018-02-09T05:58:40.078Z,8
2018-02-09T05:59:50.114Z,8
2018-02-09T06:01:00.156Z,4
2018-02-09T06:02:09.955Z,8
2018-02-09T06:03:19.990Z,8
2018-02-09T06:04:30.049Z,12
2018-02-09T06:05:40.089Z,12
2018-02-09T06:06:49.887Z,16
2018-02-09T06:07:59.972Z,16
2018-02-09T06:09:10.014Z,20
2018-02-09T06:10:20.057Z,24
2018-02-09T06:11:29.584Z,28
2018-02-09T06:12:39.640Z,28
2018-02-09T06:13:49.680Z,36
2018-02-09T06:14:59.458Z,40
2018-02-09T06:16:09.258Z,44
2018-02-09T06:17:19.033Z,48
2018-02-09T06:18:29.077Z,56
2018-02-09T06:19:38.868Z,64
2018-02-09T06:20:48.652Z,68
2018-02-09T06:21:58.696Z,76
2018-02-09T06:23:08.750Z,84
2018-02-09T06:24:18.793Z,88
2018-02-09T06:25:28.563Z,96
2018-02-09T06:26:38.591Z,104
2018-02-09T06:27:48.633Z,112
2018-02-09T06:28:58.680Z,116
2018-02-09T06:30:08.731Z,124
2018-02-09T06:31:18.008Z,132
2018-02-09T06:32:27.793Z,140
2018-02-09T06:33:37.820Z,148
2018-02-09T06:34:47.867Z,160
2018-02-09T06:35:58.005Z,168
2018-02-09T06:37:08.057Z,180
2018-02-09T06:38:18.111Z,188
2018-02-09T06:39:27.901Z,200
2018-02-09T06:40:37.944Z,212
2018-02-09T06:41:47.713Z,220
2018-02-09T06:42:57.505Z,236
2018-02-09T06:44:07.550Z,248
2018-02-09T06:45:17.579Z,256
2018-02-09T06:46:27.367Z,268
2018-02-09T06:47:37.411Z,280
2018-02-09T06:48:47.449Z,292
2018-02-09T06:49:57.489Z,308
2018-02-09T06:51:07.547Z,316
2018-02-09T06:52:17.333Z,324
2018-02-09T06:53:27.377Z,328
2018-02-09T06:54:37.449Z,340
2018-02-09T06:55:47.574Z,344
2018-02-09T06:56:57.625Z,356
2018-02-09T06:58:07.700Z,364
2018-02-09T06:59:17.754Z,380
2018-02-09T07:00:27.578Z,392
2018-02-09T07:01:37.360Z,408
2018-02-09T07:02:47.133Z,428
2018-02-09T07:03:56.942Z,452
2018-02-09T07:05:06.979Z,484
2018-02-09T07:06:16.753Z,516
2018-02-09T07:07:26.527Z,556
2018-02-09T07:08:36.359Z,592
2018-02-09T07:09:46.148Z,620
2018-02-09T07:10:56.193Z,648
2018-02-09T07:12:06.231Z,676
2018-02-09T07:13:16.295Z,708
2018-02-09T07:14:26.367Z,748
2018-02-09T07:15:36.408Z,780
2018-02-09T07:16:46.466Z,808
2018-02-09T07:17:56.242Z,840
2018-02-09T07:19:06.296Z,860
2018-02-09T07:20:16.359Z,880
2018-02-09T07:21:26.141Z,892
2018-02-09T07:22:36.181Z,908
2018-02-09T07:23:46.237Z,936
2018-02-09T07:24:55.780Z,960
2018-02-09T07:26:05.567Z,988
2018-02-09T07:27:15.610Z,1004
2018-02-09T07:28:25.653Z,1004
2018-02-09T07:29:35.460Z,996
2018-02-09T07:30:45.499Z,980
2018-02-09T07:31:55.291Z,964
2018-02-09T07:33:05.339Z,960
2018-02-09T07:34:15.135Z,960
2018-02-09T07:35:24.914Z,976
2018-02-09T07:36:34.955Z,992
2018-02-09T07:37:44.734Z,1020
2018-02-09T07:38:54.776Z,1044
2018-02-09T07:40:04.844Z,1076
2018-02-09T07:41:15.163Z,1108
2018-02-09T07:42:25.245Z,1140
2018-02-09T07:43:35.290Z,1180
2018-02-09T07:44:45.340Z,1212
2018-02-09T07:45:55.386Z,1248
2018-02-09T07:47:05.428Z,1288
2018-02-09T07:48:15.214Z,1308
2018-02-09T07:49:25.341Z,1316
2018-02-09T07:50:35.397Z,1324
2018-02-09T07:51:45.459Z,1364
2018-02-09T07:52:55.232Z,1432
2018-02-09T07:54:05.023Z,1524
2018-02-09T07:55:14.811Z,1624
2018-02-09T07:56:24.596Z,1704
2018-02-09T07:57:34.635Z,1760
2018-02-09T07:58:44.684Z,1792
2018-02-09T07:59:54.786Z,1816
2018-02-09T08:01:04.588Z,1844
2018-02-09T08:02:14.615Z,1880
2018-02-09T08:03:24.658Z,1928
2018-02-09T08:04:34.692Z,1984
2018-02-09T08:05:44.737Z,2044
2018-02-09T08:06:54.777Z,2096
2018-02-09T08:08:04.825Z,2160
2018-02-09T08:09:14.616Z,2228
2018-02-09T08:10:24.897Z,2308
2018-02-09T08:11:34.933Z,2368
2018-02-09T08:12:44.993Z,2416
2018-02-09T08:13:55.036Z,2456
2018-02-09T08:15:05.068Z,2492
2018-02-09T08:16:15.124Z,2524
2018-02-09T08:17:25.167Z,2556
2018-02-09T08:18:35.200Z,2576
2018-02-09T08:19:45.250Z,2588
2018-02-09T08:20:54.768Z,2600
2018-02-09T08:22:04.828Z,2628
2018-02-09T08:23:14.876Z,2668
2018-02-09T08:24:25.045Z,2712
2018-02-09T08:25:35.083Z,2752
2018-02-09T08:26:45.118Z,2792
2018-02-09T08:27:55.159Z,2832
2018-02-09T08:29:04.956Z,2868
2018-02-09T08:30:15.042Z,2904
2018-02-09T08:31:25.089Z,2948
2018-02-09T08:32:34.895Z,2988
2018-02-09T08:33:44.935Z,3032
2018-02-09T08:34:54.722Z,3080
2018-02-09T08:36:04.822Z,3128
2018-02-09T08:37:14.861Z,3172
2018-02-09T08:38:24.915Z,3208
2018-02-09T08:39:34.962Z,3232
2018-02-09T08:40:44.824Z,3252
2018-02-09T08:41:54.885Z,3268
2018-02-09T08:43:04.926Z,3288
2018-02-09T08:44:14.478Z,3308
2018-02-09T08:45:24.515Z,3332
2018-02-09T08:46:34.347Z,3352
2018-02-09T08:47:44.403Z,3376
2018-02-09T08:48:54.446Z,3396
2018-02-09T08:50:04.488Z,3416
2018-02-09T08:51:14.529Z,3436
2018-02-09T08:52:24.306Z,3456
2018-02-09T08:53:34.105Z,3480
2018-02-09T08:54:44.150Z,3504
2018-02-09T08:55:54.209Z,3528
2018-02-09T08:57:03.731Z,3560
2018-02-09T08:58:13.779Z,3596
2018-02-09T08:59:23.640Z,3624
2018-02-09T09:00:33.709Z,3652
2018-02-09T09:01:43.491Z,3684
2018-02-09T09:02:53.542Z,3720
2018-02-09T09:04:03.381Z,3752
2018-02-09T09:05:13.161Z,3780
2018-02-09T09:06:22.937Z,3824
2018-02-09T09:07:32.975Z,3864
2018-02-09T09:08:43.010Z,3900
2018-02-09T09:09:52.543Z,3940
2018-02-09T09:11:02.590Z,3976
2018-02-09T09:12:12.635Z,4004
2018-02-09T09:13:22.681Z,4036
2018-02-09T09:14:32.731Z,4064
2018-02-09T09:15:42.789Z,4096
2018-02-09T09:16:52.563Z,4124
2018-02-09T09:18:02.600Z,4156
2018-02-09T09:19:12.664Z,4184
2018-02-09T09:20:22.728Z,4208
2018-02-09T09:21:32.788Z,4240
2018-02-09T09:22:42.847Z,4260
2018-02-09T09:23:52.886Z,4284
2018-02-09T09:25:02.682Z,4308
2018-02-09T09:26:12.735Z,4336
2018-02-09T09:27:22.778Z,4352
2018-02-09T09:28:32.574Z,4376
2018-02-09T09:29:42.622Z,4392
2018-02-09T09:30:52.701Z,4412
2018-02-09T09:32:02.486Z,4428
2018-02-09T09:33:12.262Z,4436
2018-02-09T09:34:22.339Z,4440
2018-02-09T09:35:32.391Z,4448
2018-02-09T09:36:42.455Z,4464
2018-02-09T09:37:52.258Z,4480
2018-02-09T09:39:02.365Z,4500
2018-02-09T09:40:12.412Z,4524
2018-02-09T09:41:22.534Z,4544
2018-02-09T09:42:32.570Z,4572
2018-02-09T09:43:42.620Z,4604
2018-02-09T09:44:52.794Z,4644
2018-02-09T09:46:02.586Z,4684
2018-02-09T09:47:12.641Z,4732
2018-02-09T09:48:22.699Z,4780
2018-02-09T09:49:32.746Z,4828
2018-02-09T09:50:42.811Z,4880
2018-02-09T09:51:52.913Z,4908
2018-02-09T09:53:02.714Z,4916
2018-02-09T09:54:12.769Z,4912
2018-02-09T09:55:22.606Z,4908
2018-02-09T09:56:32.663Z,4912
2018-02-09T09:57:42.464Z,4924
2018-02-09T09:58:52.565Z,4944
2018-02-09T10:00:02.631Z,4968
2018-02-09T10:01:12.786Z,4996
2018-02-09T10:02:22.625Z,5028
2018-02-09T10:03:32.688Z,5052
2018-02-09T10:04:42.767Z,5060
2018-02-09T10:05:52.828Z,5060
2018-02-09T10:07:02.883Z,5064
2018-02-09T10:08:12.661Z,5064
2018-02-09T10:09:22.731Z,5072
2018-02-09T10:10:32.796Z,5092
2018-02-09T10:11:42.601Z,5128
2018-02-09T10:12:52.661Z,5156
2018-02-09T10:14:02.708Z,5184
2018-02-09T10:15:12.765Z,5192
2018-02-09T10:16:22.827Z,5180
2018-02-09T10:17:32.865Z,5164
2018-02-09T10:18:42.921Z,5148
2018-02-09T10:19:52.734Z,5128
2018-02-09T10:21:02.789Z,5136
2018-02-09T10:22:12.318Z,5132
2018-02-09T10:23:22.434Z,5156
2018-02-09T10:24:32.485Z,5176
2018-02-09T10:25:42.043Z,5196
2018-02-09T10:26:52.102Z,5204
2018-02-09T10:28:02.154Z,5208
2018-02-09T10:29:11.937Z,5204
2018-02-09T10:30:21.984Z,5196
2018-02-09T10:31:31.794Z,5192
2018-02-09T10:32:41.858Z,5184
2018-02-09T10:33:51.914Z,5180
2018-02-09T10:35:01.699Z,5176
2018-02-09T10:36:11.756Z,5172
2018-02-09T10:37:21.549Z,5168
2018-02-09T10:38:31.623Z,5176
2018-02-09T10:39:41.393Z,5176
2018-02-09T10:40:51.439Z,5176
2018-02-09T10:42:01.522Z,5184
2018-02-09T10:43:11.578Z,5184
2018-02-09T10:44:21.630Z,5180
2018-02-09T10:45:31.674Z,5176
2018-02-09T10:46:41.719Z,5168
2018-02-09T10:47:51.502Z,5160
2018-02-09T10:49:01.552Z,5144
2018-02-09T10:50:11.358Z,5136
2018-02-09T10:51:21.418Z,5140
2018-02-09T10:52:31.236Z,5156
2018-02-09T10:53:41.268Z,5168
2018-02-09T10:54:51.321Z,5184
2018-02-09T10:56:01.381Z,5196
2018-02-09T10:57:11.439Z,5216
2018-02-09T10:58:20.972Z,5232
2018-02-09T10:59:31.022Z,5248
2018-02-09T11:00:41.086Z,5256
2018-02-09T11:01:50.661Z,5260
2018-02-09T11:03:00.469Z,5256
2018-02-09T11:04:10.514Z,5244
2018-02-09T11:05:20.052Z,5216
2018-02-09T11:06:30.100Z,5168
2018-02-09T11:07:40.147Z,5140
2018-02-09T11:08:50.201Z,5120
2018-02-09T11:09:59.995Z,5120
2018-02-09T11:11:09.777Z,5128
2018-02-09T11:12:19.911Z,5136
2018-02-09T11:13:29.712Z,5132
2018-02-09T11:14:39.494Z,5116
2018-02-09T11:15:49.553Z,5072
2018-02-09T11:16:59.683Z,5020
2018-02-09T11:18:09.721Z,4972
2018-02-09T11:19:19.524Z,4948
2018-02-09T11:20:29.592Z,4900
2018-02-09T11:21:39.387Z,4856
2018-02-09T11:22:49.484Z,4836
2018-02-09T11:23:59.526Z,4844
2018-02-09T11:25:09.608Z,4864
2018-02-09T11:26:19.585Z,4892
2018-02-09T11:27:30.744Z,4896
2018-02-09T11:28:40.791Z,4892
2018-02-09T11:29:51.009Z,4884
2018-02-09T11:31:00.808Z,4884
2018-02-09T11:32:10.628Z,4880
2018-02-09T11:33:20.697Z,4876
2018-02-09T11:34:30.754Z,4864
2018-02-09T11:35:40.552Z,4852
2018-02-09T11:36:50.140Z,4824
2018-02-09T11:37:59.945Z,4800
2018-02-09T11:39:09.991Z,4768
2018-02-09T11:40:20.106Z,4728
2018-02-09T11:41:30.162Z,4672
2018-02-09T11:42:39.710Z,4632
2018-02-09T11:43:49.774Z,4588
2018-02-09T11:44:59.852Z,4576
2018-02-09T11:46:09.642Z,4568
2018-02-09T11:47:19.685Z,4532
2018-02-09T11:48:29.486Z,4504
2018-02-09T11:49:39.338Z,4496
2018-02-09T11:50:49.436Z,4472
2018-02-09T11:51:59.486Z,4444
2018-02-09T11:53:09.565Z,4420
2018-02-09T11:54:19.647Z,4396
2018-02-09T11:55:29.756Z,4404
2018-02-09T11:56:39.807Z,4416
2018-02-09T11:57:49.872Z,4444
2018-02-09T11:58:59.977Z,4476
2018-02-09T12:00:10.041Z,4520
2018-02-09T12:01:20.080Z,4588
2018-02-09T12:02:30.123Z,4632
2018-02-09T12:03:40.158Z,4696
2018-02-09T12:04:50.206Z,4724
2018-02-09T12:06:00.256Z,4716
2018-02-09T12:07:10.356Z,4872
2018-02-09T12:08:20.398Z,4660
2018-02-09T12:09:30.200Z,4612
2018-02-09T12:10:40.000Z,4616
2018-02-09T12:11:50.114Z,4660
2018-02-09T12:13:00.161Z,4516
2018-02-09T12:14:10.220Z,4428
2018-02-09T12:15:19.745Z,4356
2018-02-09T12:16:29.791Z,4364
2018-02-09T12:17:40.175Z,4304
2018-02-09T12:18:50.255Z,4304
2018-02-09T12:20:00.086Z,4568
2018-02-09T12:21:09.893Z,4396
2018-02-09T12:22:19.686Z,4296
2018-02-09T12:23:29.474Z,4240
2018-02-09T12:24:39.522Z,4152
2018-02-09T12:25:49.567Z,4076
2018-02-09T12:26:59.392Z,4004
2018-02-09T12:28:09.432Z,3980
2018-02-09T12:29:19.492Z,4016
2018-02-09T12:30:29.558Z,4088
2018-02-09T12:31:39.595Z,4152
2018-02-09T12:32:49.148Z,4252
2018-02-09T12:33:59.202Z,4344
2018-02-09T12:35:08.982Z,4372
2018-02-09T12:36:19.041Z,4372
2018-02-09T12:37:29.087Z,4384
2018-02-09T12:38:38.878Z,4404
2018-02-09T12:39:48.919Z,4424
2018-02-09T12:40:58.985Z,4440
2018-02-09T12:42:09.045Z,4444
2018-02-09T12:43:18.959Z,4568
2018-02-09T12:44:29.022Z,4680
2018-02-09T12:45:38.826Z,4552
2018-02-09T12:46:48.876Z,4512
2018-02-09T12:47:58.661Z,4492
2018-02-09T12:49:08.217Z,4456
2018-02-09T12:50:18.294Z,4400
2018-02-09T12:51:28.420Z,4348
2018-02-09T12:52:38.199Z,4320
2018-02-09T12:53:48.310Z,4280
2018-02-09T12:54:58.123Z,4260
2018-02-09T12:56:07.923Z,4184
2018-02-09T12:57:17.722Z,4196
2018-02-09T12:58:27.758Z,4208
2018-02-09T12:59:37.794Z,4060
2018-02-09T13:00:47.856Z,3936
2018-02-09T13:01:57.651Z,3872
2018-02-09T13:03:07.452Z,3864
2018-02-09T13:04:17.249Z,3892
2018-02-09T13:05:27.298Z,3936
2018-02-09T13:06:37.370Z,3948
2018-02-09T13:07:47.426Z,3988
2018-02-09T13:08:58.126Z,4016
2018-02-09T13:10:08.172Z,4088
2018-02-09T13:11:18.222Z,4156
2018-02-09T13:12:28.271Z,4560
2018-02-09T13:13:38.354Z,4496
2018-02-09T13:14:48.157Z,4364
2018-02-09T13:15:58.213Z,4316
2018-02-09T13:17:07.749Z,4224
2018-02-09T13:18:17.607Z,4100
2018-02-09T13:19:27.680Z,4028
2018-02-09T13:20:37.750Z,4012
2018-02-09T13:21:47.799Z,4064
2018-02-09T13:22:57.855Z,4116
2018-02-09T13:24:07.915Z,4084
2018-02-09T13:25:17.984Z,3984
2018-02-09T13:26:27.790Z,3916
2018-02-09T13:27:37.862Z,3796
2018-02-09T13:28:47.902Z,3696
2018-02-09T13:29:57.706Z,3588
2018-02-09T13:31:07.757Z,3508
2018-02-09T13:32:17.807Z,3456
2018-02-09T13:33:27.857Z,3396
2018-02-09T13:34:37.910Z,3336
2018-02-09T13:35:47.968Z,3248
2018-02-09T13:36:57.792Z,3116
2018-02-09T13:38:07.850Z,3032
2018-02-09T13:39:17.654Z,3020
2018-02-09T13:40:27.450Z,3056
2018-02-09T13:41:37.238Z,3084
2018-02-09T13:42:47.681Z,3068
2018-02-09T13:43:57.203Z,3016
2018-02-09T13:45:07.255Z,2976
2018-02-09T13:46:17.303Z,2940
2018-02-09T13:47:27.343Z,2908
2018-02-09T13:48:37.416Z,2908
2018-02-09T13:49:47.540Z,2792
2018-02-09T13:50:57.590Z,2776
2018-02-09T13:52:07.393Z,2740
2018-02-09T13:53:17.452Z,2676
2018-02-09T13:54:27.513Z,2636
2018-02-09T13:55:37.606Z,2600
2018-02-09T13:56:47.396Z,2688
2018-02-09T13:57:57.180Z,2608
2018-02-09T13:59:07.295Z,2768
2018-02-09T14:00:17.347Z,2652
2018-02-09T14:01:27.137Z,2732
2018-02-09T14:02:37.218Z,2720
2018-02-09T14:03:47.038Z,2704
2018-02-09T14:04:57.093Z,2688
2018-02-09T14:06:07.146Z,2840
2018-02-09T14:07:17.200Z,3096
2018-02-09T14:08:26.734Z,3348
2018-02-09T14:09:36.804Z,2800
2018-02-09T14:10:46.928Z,3144
2018-02-09T14:11:56.712Z,3320
2018-02-09T14:13:06.773Z,3248
2018-02-09T14:14:16.861Z,3108
2018-02-09T14:15:26.925Z,2936
2018-02-09T14:16:36.983Z,2568
2018-02-09T14:17:46.861Z,2324
2018-02-09T14:18:56.930Z,2324
2018-02-09T14:20:07.006Z,2376
2018-02-09T14:21:17.062Z,2352
2018-02-09T14:22:27.123Z,2240
2018-02-09T14:23:37.228Z,2192
2018-02-09T14:24:47.310Z,2164
2018-02-09T14:25:57.103Z,2160
2018-02-09T14:27:06.897Z,2184
2018-02-09T14:28:16.936Z,2216
2018-02-09T14:29:26.789Z,2280
2018-02-09T14:30:36.441Z,2508
2018-02-09T14:31:46.247Z,2516
2018-02-09T14:32:56.315Z,2324
2018-02-09T14:34:06.369Z,2316
2018-02-09T14:35:16.439Z,2488
2018-02-09T14:36:26.511Z,2552
2018-02-09T14:37:36.577Z,2444
2018-02-09T14:38:46.675Z,2492
2018-02-09T14:39:56.732Z,2348
2018-02-09T14:41:06.786Z,2120
2018-02-09T14:42:16.857Z,2192
2018-02-09T14:43:26.912Z,1932
2018-02-09T14:44:36.713Z,1876
2018-02-09T14:45:46.772Z,1888
2018-02-09T14:46:56.806Z,1792
2018-02-09T14:48:06.879Z,1756
2018-02-09T14:49:16.665Z,1720
2018-02-09T14:50:26.779Z,1708
2018-02-09T14:51:36.812Z,1644
2018-02-09T14:52:46.595Z,1604
2018-02-09T14:53:56.640Z,1572
2018-02-09T14:55:06.440Z,1544
2018-02-09T14:56:16.489Z,1516
2018-02-09T14:57:26.030Z,1488
2018-02-09T14:58:36.098Z,1500
2018-02-09T14:59:46.163Z,1432
2018-02-09T15:00:56.221Z,1408
2018-02-09T15:02:06.029Z,1376
2018-02-09T15:03:16.079Z,1344
2018-02-09T15:04:26.131Z,1308
2018-02-09T15:05:36.274Z,1276
2018-02-09T15:06:46.065Z,1244
2018-02-09T15:07:55.927Z,1208
2018-02-09T15:09:05.730Z,1180
2018-02-09T15:10:15.505Z,1144
2018-02-09T15:11:25.731Z,1112
2018-02-09T15:12:35.893Z,1084
2018-02-09T15:13:45.966Z,1056
2018-02-09T15:14:55.746Z,1024
2018-02-09T15:16:05.801Z,992
2018-02-09T15:17:15.865Z,956
2018-02-09T15:18:25.675Z,924
2018-02-09T15:19:35.719Z,896
2018-02-09T15:20:45.515Z,872
2018-02-09T15:21:55.320Z,848
2018-02-09T15:23:05.387Z,828
2018-02-09T15:24:15.494Z,804
2018-02-09T15:25:25.546Z,780
2018-02-09T15:26:35.599Z,756
2018-02-09T15:27:45.651Z,736
2018-02-09T15:28:55.515Z,712
2018-02-09T15:30:05.372Z,692
2018-02-09T15:31:15.465Z,672
2018-02-09T15:32:24.984Z,648
2018-02-09T15:33:34.528Z,620
2018-02-09T15:34:44.572Z,596
2018-02-09T15:35:54.634Z,576
2018-02-09T15:37:04.677Z,552
2018-02-09T15:38:14.469Z,532
2018-02-09T15:39:24.275Z,512
2018-02-09T15:40:34.335Z,488
2018-02-09T15:41:44.380Z,464
2018-02-09T15:42:54.166Z,440
2018-02-09T15:44:04.212Z,420
2018-02-09T15:45:14.005Z,400
2018-02-09T15:46:24.070Z,376
2018-02-09T15:47:33.867Z,356
2018-02-09T15:48:43.928Z,336
2018-02-09T15:49:54.035Z,320
2018-02-09T15:51:03.881Z,300
2018-02-09T15:52:14.052Z,280
2018-02-09T15:53:23.830Z,264
2018-02-09T15:54:33.868Z,244
2018-02-09T15:55:43.938Z,224
2018-02-09T15:56:53.972Z,208
2018-02-09T15:58:04.017Z,192
2018-02-09T15:59:14.064Z,176
2018-02-09T16:00:23.867Z,160
2018-02-09T16:01:33.928Z,148
2018-02-09T16:02:43.991Z,132
2018-02-09T16:03:54.069Z,116
2018-02-09T16:05:03.603Z,108
2018-02-09T16:06:13.386Z,96
2018-02-09T16:07:23.434Z,84
2018-02-09T16:08:33.244Z,76
2018-02-09T16:09:43.390Z,64
2018-02-09T16:10:53.490Z,56
2018-02-09T16:12:03.604Z,52
2018-02-09T16:13:13.416Z,40
2018-02-09T16:14:23.469Z,40
2018-02-09T16:15:33.268Z,32
2018-02-09T16:16:43.334Z,24
2018-02-09T16:17:53.149Z,24
2018-02-09T16:19:03.212Z,20
2018-02-09T16:20:13.243Z,16
2018-02-09T16:21:23.325Z,12
2018-02-09T16:22:32.866Z,12
2018-02-09T16:23:42.661Z,8
2018-02-09T16:24:52.447Z,8
2018-02-09T16:26:02.519Z,8
2018-02-09T16:27:12.590Z,4
2018-02-09T16:28:22.408Z,4
2018-02-09T16:29:32.182Z,4
2018-02-09T16:30:42.251Z,4
2018-02-09T16:31:52.050Z,0
2018-02-09T16:33:01.890Z,4
2018-02-09T16:34:11.980Z,0
2018-02-09T16:35:22.034Z,0
2018-02-09T16:36:32.084Z,4
2018-02-09T16:37:42.202Z,4
2018-02-09T16:38:52.274Z,0
2018-02-09T16:40:02.336Z,0
2018-02-09T16:41:12.133Z,0
2018-02-09T16:42:22.201Z,0
2018-02-09T16:43:32.330Z,0